Terminal Aerodrome Forecast
Issued by NWS

Home | Current Version | Previous Version | Text Only | Print | Product List | Glossary On
Versions: 1 2 3 4 5 6 7 8 9 10 11 12 13 14 15 16 17
000
FTUS41 KPHI 181700
TAFPNE
TAF
KPNE 181720Z 1818/1918 17006KT P6SM FEW040 BKN250
     FM190400 VRB03KT P6SM BKN250
     FM191300 34010G17KT P6SM SKC=

USA.gov is the U.S. government's official web portal to all federal, state and local government web resources and services.